UNTT 160830Z 10004MPS CAVOK 29/15 Q1008 R21/090060 NOSIG RMK QFE740
QNH:(hPa/inHg/mmHg)1008 / 29.77 / 756
QFE:(hPa/inHg/mmHg)986 / 29.11 / 739
Temperature29
Dew Point15
Visibility> 10000
WeatherCAVOK
Cloud Cover
Transition Height1000 m./3900 ft.
Transition LevelFL60
SQUAWK